createdAt,value
2019-03-28T00:01:59.126Z,14.20
2019-03-28T00:04:25.701Z,15.68
2019-03-28T00:06:52.178Z,13.13
2019-03-28T00:09:19.324Z,15.95
2019-03-28T00:11:46.006Z,12.95
2019-03-28T00:14:12.597Z,12.25
2019-03-28T00:16:39.270Z,14.38
2019-03-28T00:19:05.749Z,13.83
2019-03-28T00:21:32.117Z,14.03
2019-03-28T00:24:03.471Z,14.50
2019-03-28T00:26:30.857Z,13.65
2019-03-28T00:28:58.211Z,13.08
2019-03-28T00:31:24.765Z,15.70
2019-03-28T00:33:51.239Z,15.85
2019-03-28T00:36:17.681Z,15.70
2019-03-28T00:38:44.165Z,14.43
2019-03-28T00:41:10.745Z,14.68
2019-03-28T00:43:37.346Z,15.63
2019-03-28T00:46:04.005Z,16.50
2019-03-28T00:48:30.594Z,17.23
2019-03-28T00:50:57.101Z,18.67
2019-03-28T00:53:23.745Z,17.37
2019-03-28T00:55:50.222Z,16.67
2019-03-28T00:58:16.882Z,17.05
2019-03-28T01:00:43.585Z,16.17
2019-03-28T01:03:10.037Z,16.12
2019-03-28T01:05:36.878Z,17.15
2019-03-28T01:08:03.436Z,16.65
2019-03-28T01:10:30.449Z,16.20
2019-03-28T01:12:57.449Z,15.25
2019-03-28T01:15:23.928Z,17.30
2019-03-28T01:17:50.496Z,17.60
2019-03-28T01:20:16.980Z,15.50
2019-03-28T01:22:43.636Z,16.15
2019-03-28T01:25:10.317Z,15.85
2019-03-28T01:27:36.876Z,17.25
2019-03-28T01:30:07.442Z,17.95
2019-03-28T01:32:33.904Z,17.67
2019-03-28T01:35:00.500Z,16.57
2019-03-28T01:37:26.941Z,15.75
2019-03-28T01:39:53.416Z,16.65
2019-03-28T01:42:19.868Z,16.82
2019-03-28T01:44:46.457Z,15.78
2019-03-28T01:47:13.394Z,16.48
2019-03-28T01:49:39.869Z,16.15
2019-03-28T01:52:06.440Z,19.35
2019-03-28T01:54:32.900Z,16.95
2019-03-28T01:57:10.334Z,16.42
2019-03-28T01:59:27.517Z,16.87
2019-03-28T02:01:54.134Z,17.50
2019-03-28T02:04:21.914Z,18.05
2019-03-28T02:06:48.393Z,17.20
2019-03-28T02:09:14.847Z,16.62
2019-03-28T02:11:41.622Z,16.65
2019-03-28T02:14:08.181Z,19.25
2019-03-28T02:16:34.666Z,16.42
2019-03-28T02:19:01.638Z,16.65
2019-03-28T02:21:28.222Z,18.73
2019-03-28T02:23:54.877Z,17.02
2019-03-28T02:26:21.361Z,17.95
2019-03-28T02:28:47.808Z,15.38
2019-03-28T02:31:14.398Z,14.80
2019-03-28T02:33:40.876Z,17.67
2019-03-28T02:36:07.459Z,16.80
2019-03-28T02:38:34.054Z,17.25
2019-03-28T02:41:01.234Z,17.90
2019-03-28T02:43:27.721Z,17.48
2019-03-28T02:45:54.660Z,16.57
2019-03-28T02:48:21.315Z,15.32
2019-03-28T02:50:47.768Z,16.60
2019-03-28T02:53:14.366Z,14.60
2019-03-28T02:55:40.911Z,16.00
2019-03-28T02:58:07.360Z,16.27
2019-03-28T03:00:34.133Z,16.70
2019-03-28T03:03:01.026Z,16.77
2019-03-28T03:05:27.608Z,17.80
2019-03-28T03:07:54.168Z,16.42
2019-03-28T03:10:21.044Z,18.12
2019-03-28T03:12:47.502Z,17.30
2019-03-28T03:15:14.193Z,18.10
2019-03-28T03:17:41.572Z,17.50
2019-03-28T03:20:08.827Z,15.98
2019-03-28T03:22:35.394Z,17.05
2019-03-28T03:25:05.971Z,17.75
2019-03-28T03:27:32.526Z,17.75
2019-03-28T03:29:59.073Z,16.40
2019-03-28T03:32:25.562Z,15.95
2019-03-28T03:34:52.108Z,15.85
2019-03-28T03:37:18.703Z,19.05
2019-03-28T03:39:45.140Z,16.30
2019-03-28T03:42:11.654Z,16.20
2019-03-28T03:44:38.110Z,17.20
2019-03-28T03:47:04.589Z,18.35
2019-03-28T03:49:31.185Z,17.32
2019-03-28T03:51:57.686Z,17.27
2019-03-28T03:54:24.220Z,15.72
2019-03-28T03:56:50.699Z,16.23
2019-03-28T03:59:17.167Z,17.17
2019-03-28T04:01:44.508Z,17.55
2019-03-28T04:04:10.998Z,18.55
2019-03-28T04:06:37.481Z,16.02
2019-03-28T04:09:05.131Z,16.10
2019-03-28T04:11:31.712Z,15.43
2019-03-28T04:13:58.555Z,17.40
2019-03-28T04:16:25.129Z,19.57
2019-03-28T04:18:51.817Z,17.45
2019-03-28T04:21:18.390Z,17.12
2019-03-28T04:23:44.946Z,16.50
2019-03-28T04:26:11.420Z,16.77
2019-03-28T04:28:38.545Z,17.27
2019-03-28T04:31:05.161Z,17.73
2019-03-28T04:33:31.705Z,17.05
2019-03-28T04:35:58.375Z,16.73
2019-03-28T04:38:24.870Z,17.17
2019-03-28T04:40:51.304Z,18.80
2019-03-28T04:43:18.112Z,18.52
2019-03-28T04:45:44.589Z,20.57
2019-03-28T04:48:11.048Z,18.30
2019-03-28T04:50:37.636Z,19.02
2019-03-28T04:53:04.180Z,18.07
2019-03-28T04:55:30.620Z,19.65
2019-03-28T04:57:56.989Z,18.65
2019-03-28T05:00:23.536Z,17.92
2019-03-28T05:02:50.293Z,18.65
2019-03-28T05:05:16.806Z,19.42
2019-03-28T05:07:43.572Z,20.32
2019-03-28T05:10:10.507Z,21.10
2019-03-28T05:12:36.991Z,19.60
2019-03-28T05:15:06.649Z,17.50
2019-03-28T05:17:33.228Z,17.05
2019-03-28T05:19:59.659Z,19.23
2019-03-28T05:22:26.038Z,20.02
2019-03-28T05:24:52.502Z,18.57
2019-03-28T05:27:19.063Z,20.65
2019-03-28T05:29:45.433Z,19.10
2019-03-28T05:32:11.889Z,21.45
2019-03-28T05:34:38.331Z,20.95
2019-03-28T05:37:04.791Z,20.75
2019-03-28T05:39:31.152Z,22.70
2019-03-28T05:41:57.739Z,20.85
2019-03-28T05:44:24.100Z,21.20
2019-03-28T05:46:50.572Z,22.15
2019-03-28T05:49:17.024Z,21.70
2019-03-28T05:51:43.607Z,22.35
2019-03-28T05:54:10.061Z,19.50
2019-03-28T05:56:36.440Z,20.17
2019-03-28T05:59:10.632Z,21.70
2019-03-28T06:01:32.321Z,21.62
2019-03-28T06:03:58.812Z,22.82
2019-03-28T06:06:25.657Z,21.73
2019-03-28T06:08:52.096Z,22.93
2019-03-28T06:11:18.779Z,28.35
2019-03-28T06:13:45.240Z,21.87
2019-03-28T06:16:11.963Z,22.05
2019-03-28T06:18:38.404Z,20.70
2019-03-28T06:21:05.279Z,20.32
2019-03-28T06:23:31.767Z,22.05
2019-03-28T06:25:58.486Z,23.67
2019-03-28T06:28:25.425Z,22.93
2019-03-28T06:30:52.097Z,24.30
2019-03-28T06:33:18.472Z,24.32
2019-03-28T06:35:45.313Z,25.82
2019-03-28T06:38:11.692Z,24.55
2019-03-28T06:40:38.169Z,23.25
2019-03-28T06:43:04.835Z,22.58
2019-03-28T06:45:31.412Z,21.33
2019-03-28T06:47:57.788Z,21.77
2019-03-28T06:50:24.626Z,22.42
2019-03-28T06:52:51.080Z,18.80
2019-03-28T06:55:17.533Z,21.82
2019-03-28T06:57:44.012Z,22.93
2019-03-28T07:00:10.887Z,22.17
2019-03-28T07:02:37.543Z,22.05
2019-03-28T07:05:05.179Z,23.18
2019-03-28T07:07:32.339Z,22.10
2019-03-28T07:10:02.251Z,20.97
2019-03-28T07:12:27.583Z,23.57
2019-03-28T07:14:54.363Z,24.98
2019-03-28T07:17:21.012Z,23.85
2019-03-28T07:19:47.472Z,24.18
2019-03-28T07:22:13.954Z,23.00
2019-03-28T07:24:40.667Z,22.35
2019-03-28T07:27:07.488Z,22.62
2019-03-28T07:29:33.948Z,22.93
2019-03-28T07:32:00.432Z,21.02
2019-03-28T07:34:26.976Z,22.58
2019-03-28T07:36:53.728Z,23.52
2019-03-28T07:39:20.206Z,23.27
2019-03-28T07:41:46.749Z,23.92
2019-03-28T07:44:13.540Z,23.90
2019-03-28T07:46:39.916Z,24.65
2019-03-28T07:49:06.594Z,23.52
2019-03-28T07:51:33.035Z,22.73
2019-03-28T07:53:59.500Z,24.37
2019-03-28T07:56:26.057Z,25.25
2019-03-28T07:58:52.954Z,26.02
2019-03-28T08:01:19.396Z,23.12
2019-03-28T08:03:46.239Z,22.48
2019-03-28T08:06:13.046Z,23.32
2019-03-28T08:08:40.780Z,22.10
2019-03-28T08:11:08.585Z,22.42
2019-03-28T08:13:35.117Z,22.73
2019-03-28T08:16:02.091Z,25.08
2019-03-28T08:18:28.835Z,23.62
2019-03-28T08:20:55.416Z,23.80
2019-03-28T08:23:22.211Z,24.00
2019-03-28T08:25:48.588Z,23.67
2019-03-28T08:28:15.145Z,25.97
2019-03-28T08:30:45.235Z,23.57
2019-03-28T08:33:10.394Z,25.05
2019-03-28T08:35:37.051Z,24.57
2019-03-28T08:38:05.037Z,24.63
2019-03-28T08:40:34.141Z,26.07
2019-03-28T08:43:00.910Z,25.62
2019-03-28T08:45:27.378Z,25.35
2019-03-28T08:47:53.932Z,24.45
2019-03-28T08:50:20.764Z,25.35
2019-03-28T08:52:47.216Z,25.52
2019-03-28T08:55:14.046Z,26.25
2019-03-28T08:57:40.608Z,24.57
2019-03-28T09:00:08.894Z,25.92
2019-03-28T09:02:35.800Z,26.15
2019-03-28T09:05:03.975Z,25.77
2019-03-28T09:07:30.466Z,26.35
2019-03-28T09:09:57.041Z,25.30
2019-03-28T09:12:23.899Z,26.20
2019-03-28T09:14:50.336Z,25.25
2019-03-28T09:17:16.805Z,27.00
2019-03-28T09:19:43.700Z,26.60
2019-03-28T09:22:10.177Z,28.97
2019-03-28T09:24:36.632Z,26.10
2019-03-28T09:27:03.624Z,25.90
2019-03-28T09:29:30.465Z,26.37
2019-03-28T09:31:57.613Z,26.80
2019-03-28T09:34:24.087Z,24.63
2019-03-28T09:36:50.682Z,25.63
2019-03-28T09:39:17.673Z,27.63
2019-03-28T09:42:04.089Z,26.70
2019-03-28T09:44:30.937Z,27.17
2019-03-28T09:46:58.035Z,27.93
2019-03-28T09:49:24.505Z,26.80
2019-03-28T09:51:50.951Z,28.13
2019-03-28T09:54:17.423Z,28.53
2019-03-28T09:56:44.078Z,28.27
2019-03-28T09:59:10.557Z,28.50
2019-03-28T10:01:37.001Z,28.60
2019-03-28T10:04:06.248Z,29.17
2019-03-28T10:06:31.844Z,28.70
2019-03-28T10:08:58.359Z,28.80
2019-03-28T10:11:24.915Z,27.30
2019-03-28T10:13:51.480Z,26.20
2019-03-28T10:16:17.934Z,27.23
2019-03-28T10:18:44.513Z,28.73
2019-03-28T10:21:11.059Z,28.13
2019-03-28T10:23:39.825Z,29.73
2019-03-28T10:26:06.588Z,28.50
2019-03-28T10:28:33.654Z,26.77
2019-03-28T10:31:00.215Z,26.60
2019-03-28T10:33:26.800Z,26.73
2019-03-28T10:35:53.862Z,24.80
2019-03-28T10:38:20.707Z,22.90
2019-03-28T10:40:47.169Z,25.87
2019-03-28T10:43:13.547Z,24.23
2019-03-28T10:45:40.215Z,24.73
2019-03-28T10:48:06.900Z,24.70
2019-03-28T10:50:41.263Z,25.23
2019-03-28T10:53:01.959Z,23.47
2019-03-28T10:55:28.409Z,24.40
2019-03-28T10:57:54.984Z,23.90
2019-03-28T11:00:24.400Z,24.30
2019-03-28T11:02:50.036Z,21.03
2019-03-28T11:05:17.011Z,23.97
2019-03-28T11:07:43.759Z,23.00
2019-03-28T11:10:10.495Z,22.07
2019-03-28T11:12:37.435Z,22.70
2019-03-28T11:15:05.703Z,20.03
2019-03-28T11:17:32.153Z,18.03
2019-03-28T11:19:58.625Z,19.33
2019-03-28T11:22:25.091Z,18.50
2019-03-28T11:24:51.684Z,18.60
2019-03-28T11:27:18.145Z,19.53
2019-03-28T11:29:44.615Z,18.87
2019-03-28T11:32:11.068Z,15.40
2019-03-28T11:34:37.902Z,15.50
2019-03-28T11:37:04.535Z,15.40
2019-03-28T11:39:31.073Z,15.60
2019-03-28T11:42:00.416Z,17.93
2019-03-28T11:44:26.183Z,18.10
2019-03-28T11:46:52.653Z,19.30
2019-03-28T11:49:19.461Z,18.57
2019-03-28T11:51:46.330Z,18.63
2019-03-28T11:54:12.921Z,17.93
2019-03-28T11:56:39.456Z,16.87
2019-03-28T11:59:06.359Z,16.97
2019-03-28T12:01:33.493Z,17.70
2019-03-28T12:03:59.962Z,18.60
2019-03-28T12:06:26.435Z,18.40
2019-03-28T12:08:55.846Z,19.90
2019-03-28T12:11:21.293Z,19.80
2019-03-28T12:13:47.765Z,19.47
2019-03-28T12:16:14.219Z,16.70
2019-03-28T12:18:40.718Z,16.13
2019-03-28T12:21:07.368Z,15.10
2019-03-28T12:23:33.833Z,15.47
2019-03-28T12:26:00.414Z,14.57
2019-03-28T12:28:26.885Z,15.27
2019-03-28T12:30:53.342Z,15.47
2019-03-28T12:33:19.796Z,15.60
2019-03-28T12:35:46.275Z,15.73
2019-03-28T12:38:12.817Z,15.90
2019-03-28T12:40:41.520Z,16.70
2019-03-28T12:43:07.973Z,17.80
2019-03-28T12:45:34.916Z,17.40
2019-03-28T12:48:01.385Z,17.70
2019-03-28T12:50:28.299Z,17.57
2019-03-28T12:52:54.760Z,18.90
2019-03-28T12:55:21.341Z,18.77
2019-03-28T12:57:48.593Z,20.23
2019-03-28T13:00:18.968Z,18.80
2019-03-28T13:02:45.512Z,21.30
2019-03-28T13:05:12.492Z,20.27
2019-03-28T13:07:38.967Z,21.57
2019-03-28T13:10:07.951Z,19.43
2019-03-28T13:12:34.593Z,21.10
2019-03-28T13:15:01.292Z,22.47
2019-03-28T13:17:27.956Z,20.60
2019-03-28T13:19:54.532Z,18.37
2019-03-28T13:22:20.980Z,17.77
2019-03-28T13:24:47.467Z,20.80
2019-03-28T13:27:14.010Z,19.00
2019-03-28T13:29:40.595Z,22.27
2019-03-28T13:32:06.961Z,20.93
2019-03-28T13:34:33.449Z,20.63
2019-03-28T13:36:59.991Z,19.90
2019-03-28T13:39:26.506Z,19.13
2019-03-28T13:41:53.229Z,21.20
2019-03-28T13:44:19.700Z,19.17
2019-03-28T13:46:46.243Z,20.53
2019-03-28T13:49:12.937Z,18.30
2019-03-28T13:51:39.494Z,19.83
2019-03-28T13:54:06.155Z,18.90
2019-03-28T13:56:32.536Z,19.30
2019-03-28T13:58:59.108Z,20.10
2019-03-28T14:01:26.300Z,22.03
2019-03-28T14:03:52.949Z,22.50
2019-03-28T14:06:19.407Z,21.43
2019-03-28T14:08:46.144Z,20.27
2019-03-28T14:11:12.721Z,20.10
2019-03-28T14:13:39.618Z,19.07
2019-03-28T14:16:06.095Z,18.60
2019-03-28T14:18:32.573Z,20.20
2019-03-28T14:20:59.092Z,19.20
2019-03-28T14:23:25.867Z,20.90
2019-03-28T14:25:52.348Z,20.50
2019-03-28T14:28:18.913Z,20.03
2019-03-28T14:30:45.502Z,20.50
2019-03-28T14:33:15.786Z,22.23
2019-03-28T14:35:40.859Z,20.07
2019-03-28T14:38:07.505Z,19.50
2019-03-28T14:40:34.379Z,22.23
2019-03-28T14:43:00.936Z,23.67
2019-03-28T14:45:27.578Z,20.47
2019-03-28T14:47:54.022Z,23.77
2019-03-28T14:50:35.649Z,22.00
2019-03-28T14:53:02.931Z,22.53
2019-03-28T14:55:29.993Z,22.43
2019-03-28T14:57:57.068Z,23.63
2019-03-28T15:00:46.948Z,23.30
2019-03-28T15:03:24.878Z,24.03
2019-03-28T15:05:42.147Z,23.30
2019-03-28T15:08:08.699Z,24.87
2019-03-28T15:10:35.184Z,23.33
2019-03-28T15:13:01.768Z,23.37
2019-03-28T15:15:28.685Z,22.40
2019-03-28T15:17:55.540Z,22.20
2019-03-28T15:20:22.128Z,19.90
2019-03-28T15:22:48.592Z,20.33
2019-03-28T15:25:15.269Z,20.67
2019-03-28T15:27:41.920Z,21.67
2019-03-28T15:30:09.334Z,20.40
2019-03-28T15:32:35.804Z,23.30
2019-03-28T15:35:03.844Z,23.77
2019-03-28T15:37:30.590Z,23.17
2019-03-28T15:39:57.627Z,23.47
2019-03-28T15:42:24.252Z,22.47
2019-03-28T15:44:50.700Z,24.90
2019-03-28T15:47:17.686Z,22.50
2019-03-28T15:49:44.561Z,22.73
2019-03-28T15:52:11.334Z,25.27
2019-03-28T15:54:37.924Z,25.03
2019-03-28T15:57:04.408Z,23.90
2019-03-28T15:59:30.871Z,26.37
2019-03-28T16:01:59.979Z,26.73
2019-03-28T16:04:26.065Z,23.40
2019-03-28T16:06:52.902Z,27.63
2019-03-28T16:09:20.255Z,26.30
2019-03-28T16:11:47.207Z,27.80
2019-03-28T16:14:14.041Z,28.40
2019-03-28T16:16:40.413Z,27.83
2019-03-28T16:19:07.163Z,27.10
2019-03-28T16:21:33.647Z,26.60
2019-03-28T16:24:00.191Z,28.47
2019-03-28T16:26:26.667Z,26.77
2019-03-28T16:28:56.371Z,30.43
2019-03-28T16:31:21.876Z,28.80
2019-03-28T16:33:48.692Z,31.50
2019-03-28T16:36:15.430Z,30.53
2019-03-28T16:38:41.978Z,28.43
2019-03-28T16:41:08.488Z,30.83
2019-03-28T16:43:35.314Z,27.07
2019-03-28T16:46:02.309Z,28.10
2019-03-28T16:48:28.757Z,29.20
2019-03-28T16:50:55.434Z,26.23
2019-03-28T16:53:21.984Z,30.00
2019-03-28T16:55:48.844Z,28.60
2019-03-28T16:58:15.797Z,26.90
2019-03-28T17:00:42.633Z,26.80
2019-03-28T17:03:09.286Z,27.13
2019-03-28T17:05:36.635Z,25.57
2019-03-28T17:08:04.906Z,25.57
2019-03-28T17:11:02.516Z,25.20
2019-03-28T17:13:29.411Z,21.40
2019-03-28T17:15:55.976Z,24.00
2019-03-28T17:18:22.564Z,25.30
2019-03-28T17:20:49.242Z,24.70
2019-03-28T17:23:15.892Z,24.47
2019-03-28T17:25:42.473Z,26.63
2019-03-28T17:28:09.451Z,25.47
2019-03-28T17:30:36.030Z,26.60
2019-03-28T17:33:02.600Z,25.53
2019-03-28T17:35:29.646Z,24.50
2019-03-28T17:37:56.343Z,25.10
2019-03-28T17:40:22.903Z,26.70
2019-03-28T17:42:50.178Z,27.13
2019-03-28T17:45:16.989Z,29.17
2019-03-28T17:47:43.776Z,26.67
2019-03-28T17:50:10.325Z,26.70
2019-03-28T17:52:36.853Z,26.97
2019-03-28T17:55:06.261Z,26.23
2019-03-28T17:57:32.946Z,28.53
2019-03-28T17:59:59.736Z,26.67
2019-03-28T18:02:26.579Z,26.97
2019-03-28T18:04:52.929Z,26.67
2019-03-28T18:07:19.535Z,26.87
2019-03-28T18:09:46.079Z,29.30
2019-03-28T18:12:13.744Z,29.13
2019-03-28T18:14:40.595Z,27.30
2019-03-28T18:17:07.196Z,28.63
2019-03-28T18:19:34.072Z,26.67
2019-03-28T18:22:03.708Z,28.63
2019-03-28T18:24:30.428Z,27.63
2019-03-28T18:26:57.767Z,30.00
2019-03-28T18:29:24.230Z,30.93
2019-03-28T18:31:52.660Z,28.97
2019-03-28T18:34:19.184Z,29.53
2019-03-28T18:36:47.287Z,27.90
2019-03-28T18:39:14.347Z,27.03
2019-03-28T18:41:40.791Z,26.63
2019-03-28T18:44:07.363Z,27.90
2019-03-28T18:46:33.840Z,27.33
2019-03-28T18:49:00.598Z,26.33
2019-03-28T18:51:27.180Z,25.27
2019-03-28T18:53:53.978Z,27.13
2019-03-28T18:56:21.268Z,28.00
2019-03-28T18:58:48.404Z,26.83
2019-03-28T19:01:14.986Z,25.70
2019-03-28T19:03:41.560Z,25.73
2019-03-28T19:06:08.041Z,26.45
2019-03-28T19:08:34.589Z,24.50
2019-03-28T19:11:01.266Z,24.20
2019-03-28T19:13:27.719Z,26.85
2019-03-28T19:15:54.176Z,26.63
2019-03-28T19:18:20.970Z,24.37
2019-03-28T19:20:47.442Z,23.27
2019-03-28T19:23:13.912Z,25.33
2019-03-28T19:25:40.680Z,28.53
2019-03-28T19:28:07.810Z,24.00
2019-03-28T19:30:34.755Z,26.37
2019-03-28T19:33:01.414Z,26.40
2019-03-28T19:35:33.129Z,24.55
2019-03-28T19:37:56.860Z,25.10
2019-03-28T19:40:23.307Z,24.20
2019-03-28T19:42:49.696Z,23.73
2019-03-28T19:45:23.210Z,23.40
2019-03-28T19:47:49.710Z,22.85
2019-03-28T19:50:19.991Z,22.75
2019-03-28T19:52:46.574Z,23.20
2019-03-28T19:55:17.140Z,22.70
2019-03-28T19:57:43.629Z,24.45
2019-03-28T20:00:10.284Z,25.60
2019-03-28T20:02:36.936Z,25.23
2019-03-28T20:05:06.496Z,23.80
2019-03-28T20:07:32.975Z,24.23
2019-03-28T20:09:59.531Z,23.95
2019-03-28T20:12:26.040Z,23.50
2019-03-28T20:14:52.596Z,24.75
2019-03-28T20:17:19.076Z,25.70
2019-03-28T20:19:45.643Z,26.82
2019-03-28T20:22:12.125Z,26.87
2019-03-28T20:24:38.590Z,26.77
2019-03-28T20:27:05.260Z,23.92
2019-03-28T20:29:33.351Z,26.27
2019-03-28T20:32:00.030Z,23.47
2019-03-28T20:34:26.504Z,23.65
2019-03-28T20:36:53.417Z,27.67
2019-03-28T20:39:20.276Z,25.95
2019-03-28T20:41:46.745Z,25.02
2019-03-28T20:44:13.220Z,27.00
2019-03-28T20:46:40.906Z,26.00
2019-03-28T20:49:08.891Z,25.52
2019-03-28T20:51:35.631Z,27.25
2019-03-28T20:54:03.676Z,25.32
2019-03-28T20:56:30.265Z,24.87
2019-03-28T20:58:56.869Z,24.40
2019-03-28T21:01:23.732Z,25.00
2019-03-28T21:03:50.417Z,24.35
2019-03-28T21:06:19.521Z,23.27
2019-03-28T21:08:45.606Z,26.48
2019-03-28T21:11:12.052Z,29.05
2019-03-28T21:13:38.520Z,27.32
2019-03-28T21:16:05.310Z,26.27
2019-03-28T21:18:31.782Z,25.62
2019-03-28T21:20:58.233Z,33.08
2019-03-28T21:23:25.034Z,32.00
2019-03-28T21:25:51.572Z,42.27
2019-03-28T21:28:18.062Z,32.95
2019-03-28T21:30:47.443Z,27.75
2019-03-28T21:33:14.984Z,54.15
2019-03-28T21:35:41.289Z,43.35
2019-03-28T21:38:07.759Z,39.10
2019-03-28T21:40:34.223Z,30.48
2019-03-28T21:43:00.742Z,27.55
2019-03-28T21:45:27.289Z,27.07
2019-03-28T21:47:53.835Z,29.95
2019-03-28T21:50:20.294Z,26.45
2019-03-28T21:52:47.139Z,26.68
2019-03-28T21:55:13.801Z,29.70
2019-03-28T21:57:42.489Z,27.55
2019-03-28T22:00:09.347Z,26.42
2019-03-28T22:02:36.035Z,28.55
2019-03-28T22:05:04.287Z,27.62
2019-03-28T22:07:30.750Z,25.30
2019-03-28T22:09:57.296Z,28.25
2019-03-28T22:12:23.790Z,27.98
2019-03-28T22:14:50.250Z,27.42
2019-03-28T22:17:17.020Z,27.10
2019-03-28T22:19:43.600Z,26.23
2019-03-28T22:22:10.415Z,27.40
2019-03-28T22:24:39.284Z,27.22
2019-03-28T22:27:06.014Z,27.52
2019-03-28T22:29:32.583Z,27.55
2019-03-28T22:31:59.064Z,26.68
2019-03-28T22:34:25.565Z,27.13
2019-03-28T22:36:57.527Z,28.70
2019-03-28T22:39:20.401Z,24.80
2019-03-28T22:41:46.990Z,28.05
2019-03-28T22:44:14.400Z,26.55
2019-03-28T22:46:41.237Z,25.68
2019-03-28T22:49:07.824Z,27.90
2019-03-28T22:51:34.405Z,28.50
2019-03-28T22:54:00.912Z,27.25
2019-03-28T22:56:27.773Z,24.32
2019-03-28T22:58:54.260Z,26.27
2019-03-28T23:01:20.809Z,26.45
2019-03-28T23:03:47.842Z,27.55
2019-03-28T23:06:14.267Z,28.60
2019-03-28T23:08:40.768Z,27.17
2019-03-28T23:11:07.337Z,25.50
2019-03-28T23:13:33.912Z,26.30
2019-03-28T23:16:00.557Z,28.65
2019-03-28T23:18:27.307Z,26.45
2019-03-28T23:20:53.862Z,27.15
2019-03-28T23:23:20.452Z,26.77
2019-03-28T23:25:46.901Z,27.22
2019-03-28T23:28:13.396Z,25.12
2019-03-28T23:30:39.940Z,26.25
2019-03-28T23:33:06.812Z,27.50
2019-03-28T23:35:33.403Z,28.38
2019-03-28T23:38:00.283Z,26.40
2019-03-28T23:40:26.817Z,27.45
2019-03-28T23:42:53.587Z,28.20
2019-03-28T23:45:20.271Z,28.40
2019-03-28T23:47:47.136Z,27.00
2019-03-28T23:50:14.083Z,26.93
2019-03-28T23:52:40.519Z,28.35
2019-03-28T23:55:07.195Z,29.30
2019-03-28T23:57:33.639Z,28.17
